sensor_id;sensor_type;location;lat;lon;timestamp;temperature;humidity
2625;DHT22;1322;53.256;10.386;2023-12-29T00:01:54;11.30;99.90
2625;DHT22;1322;53.256;10.386;2023-12-29T00:04:20;11.40;99.90
2625;DHT22;1322;53.256;10.386;2023-12-29T00:06:46;11.30;99.90
2625;DHT22;1322;53.256;10.386;2023-12-29T00:09:12;11.30;99.90
2625;DHT22;1322;53.256;10.386;2023-12-29T00:11:38;11.30;99.90
2625;DHT22;1322;53.256;10.386;2023-12-29T00:14:03;11.20;99.90
2625;DHT22;1322;53.256;10.386;2023-12-29T00:16:29;11.30;99.90
2625;DHT22;1322;53.256;10.386;2023-12-29T00:18:55;11.40;99.90
2625;DHT22;1322;53.256;10.386;2023-12-29T00:21:20;11.40;99.90
2625;DHT22;1322;53.256;10.386;2023-12-29T00:23:47;11.30;99.90
2625;DHT22;1322;53.256;10.386;2023-12-29T00:26:16;11.30;99.90
2625;DHT22;1322;53.256;10.386;2023-12-29T00:28:43;11.30;99.90
2625;DHT22;1322;53.256;10.386;2023-12-29T00:31:09;11.40;99.90
2625;DHT22;1322;53.256;10.386;2023-12-29T00:33:39;11.30;99.90
2625;DHT22;1322;53.256;10.386;2023-12-29T00:36:05;11.30;99.90
2625;DHT22;1322;53.256;10.386;2023-12-29T00:38:30;11.30;99.90
2625;DHT22;1322;53.256;10.386;2023-12-29T00:40:56;11.30;99.90
2625;DHT22;1322;53.256;10.386;2023-12-29T00:43:22;11.30;99.90
2625;DHT22;1322;53.256;10.386;2023-12-29T00:45:48;11.30;99.90
2625;DHT22;1322;53.256;10.386;2023-12-29T00:48:13;11.30;99.90
2625;DHT22;1322;53.256;10.386;2023-12-29T00:50:39;11.30;99.90
2625;DHT22;1322;53.256;10.386;2023-12-29T00:53:05;11.40;99.90
2625;DHT22;1322;53.256;10.386;2023-12-29T00:55:30;11.40;99.90
2625;DHT22;1322;53.256;10.386;2023-12-29T00:57:56;11.40;99.90
2625;DHT22;1322;53.256;10.386;2023-12-29T01:00:22;11.40;99.90
2625;DHT22;1322;53.256;10.386;2023-12-29T01:02:47;11.30;99.90
2625;DHT22;1322;53.256;10.386;2023-12-29T01:05:17;11.40;99.90
2625;DHT22;1322;53.256;10.386;2023-12-29T01:07:42;11.40;99.90
2625;DHT22;1322;53.256;10.386;2023-12-29T01:10:08;11.30;99.90
2625;DHT22;1322;53.256;10.386;2023-12-29T01:12:34;11.20;99.90
2625;DHT22;1322;53.256;10.386;2023-12-29T01:14:59;11.10;99.90
2625;DHT22;1322;53.256;10.386;2023-12-29T01:17:25;11.10;99.90
2625;DHT22;1322;53.256;10.386;2023-12-29T01:19:52;11.00;99.90
2625;DHT22;1322;53.256;10.386;2023-12-29T01:22:18;11.00;99.90
2625;DHT22;1322;53.256;10.386;2023-12-29T01:24:44;10.90;99.90
2625;DHT22;1322;53.256;10.386;2023-12-29T01:27:09;10.90;99.90
2625;DHT22;1322;53.256;10.386;2023-12-29T01:29:35;11.10;99.90
2625;DHT22;1322;53.256;10.386;2023-12-29T01:32:01;11.10;99.90
2625;DHT22;1322;53.256;10.386;2023-12-29T01:34:29;11.20;99.90
2625;DHT22;1322;53.256;10.386;2023-12-29T01:36:58;11.20;99.90
2625;DHT22;1322;53.256;10.386;2023-12-29T01:39:24;11.20;99.90
2625;DHT22;1322;53.256;10.386;2023-12-29T01:41:50;11.20;99.90
2625;DHT22;1322;53.256;10.386;2023-12-29T01:44:20;11.20;99.90
2625;DHT22;1322;53.256;10.386;2023-12-29T01:46:47;11.20;99.90
2625;DHT22;1322;53.256;10.386;2023-12-29T01:49:16;11.20;99.90
2625;DHT22;1322;53.256;10.386;2023-12-29T01:51:56;11.30;99.90
2625;DHT22;1322;53.256;10.386;2023-12-29T01:54:24;11.30;99.90
2625;DHT22;1322;53.256;10.386;2023-12-29T01:56:52;11.30;99.90
2625;DHT22;1322;53.256;10.386;2023-12-29T01:59:21;11.20;99.90
2625;DHT22;1322;53.256;10.386;2023-12-29T02:01:47;11.20;99.90
2625;DHT22;1322;53.256;10.386;2023-12-29T02:04:13;11.20;99.90
2625;DHT22;1322;53.256;10.386;2023-12-29T02:06:40;11.30;99.90
2625;DHT22;1322;53.256;10.386;2023-12-29T02:09:07;11.30;99.90
2625;DHT22;1322;53.256;10.386;2023-12-29T02:11:32;11.30;99.90
2625;DHT22;1322;53.256;10.386;2023-12-29T02:13:59;11.20;99.90
2625;DHT22;1322;53.256;10.386;2023-12-29T02:16:58;11.20;99.90
2625;DHT22;1322;53.256;10.386;2023-12-29T02:22:06;11.20;99.90
2625;DHT22;1322;53.256;10.386;2023-12-29T02:24:34;11.20;99.90
2625;DHT22;1322;53.256;10.386;2023-12-29T02:29:33;10.90;99.90
2625;DHT22;1322;53.256;10.386;2023-12-29T02:31:59;10.90;99.90
2625;DHT22;1322;53.256;10.386;2023-12-29T02:34:27;10.70;99.90
2625;DHT22;1322;53.256;10.386;2023-12-29T02:36:56;10.60;99.90
2625;DHT22;1322;53.256;10.386;2023-12-29T02:39:22;10.60;99.90
2625;DHT22;1322;53.256;10.386;2023-12-29T02:41:48;10.60;99.90
2625;DHT22;1322;53.256;10.386;2023-12-29T02:44:13;10.50;99.90
2625;DHT22;1322;53.256;10.386;2023-12-29T02:46:39;10.50;99.90
2625;DHT22;1322;53.256;10.386;2023-12-29T02:49:04;10.50;99.90
2625;DHT22;1322;53.256;10.386;2023-12-29T02:51:30;10.50;99.90
2625;DHT22;1322;53.256;10.386;2023-12-29T02:53:56;10.50;99.90
2625;DHT22;1322;53.256;10.386;2023-12-29T02:56:21;10.50;99.90
2625;DHT22;1322;53.256;10.386;2023-12-29T02:58:47;10.50;99.90
2625;DHT22;1322;53.256;10.386;2023-12-29T03:01:13;10.50;99.90
2625;DHT22;1322;53.256;10.386;2023-12-29T03:03:39;10.50;99.90
2625;DHT22;1322;53.256;10.386;2023-12-29T03:06:06;10.50;99.90
2625;DHT22;1322;53.256;10.386;2023-12-29T03:08:31;10.50;99.90
2625;DHT22;1322;53.256;10.386;2023-12-29T03:10:58;10.40;99.90
2625;DHT22;1322;53.256;10.386;2023-12-29T03:13:23;10.40;99.90
2625;DHT22;1322;53.256;10.386;2023-12-29T03:15:49;10.30;99.90
2625;DHT22;1322;53.256;10.386;2023-12-29T03:18:14;10.30;99.90
2625;DHT22;1322;53.256;10.386;2023-12-29T03:20:40;10.30;99.90
2625;DHT22;1322;53.256;10.386;2023-12-29T03:23:06;10.30;99.90
2625;DHT22;1322;53.256;10.386;2023-12-29T03:25:31;10.30;99.90
2625;DHT22;1322;53.256;10.386;2023-12-29T03:27:57;10.30;99.90
2625;DHT22;1322;53.256;10.386;2023-12-29T03:30:24;10.30;99.90
2625;DHT22;1322;53.256;10.386;2023-12-29T03:32:49;10.30;99.90
2625;DHT22;1322;53.256;10.386;2023-12-29T03:35:15;10.20;99.90
2625;DHT22;1322;53.256;10.386;2023-12-29T03:37:42;10.20;99.90
2625;DHT22;1322;53.256;10.386;2023-12-29T03:40:08;10.20;99.90
2625;DHT22;1322;53.256;10.386;2023-12-29T03:42:33;10.20;99.90
2625;DHT22;1322;53.256;10.386;2023-12-29T03:44:59;10.20;99.90
2625;DHT22;1322;53.256;10.386;2023-12-29T03:47:25;10.10;99.90
2625;DHT22;1322;53.256;10.386;2023-12-29T03:49:50;10.00;99.90
2625;DHT22;1322;53.256;10.386;2023-12-29T03:52:16;10.00;99.90
2625;DHT22;1322;53.256;10.386;2023-12-29T03:54:41;10.00;99.90
2625;DHT22;1322;53.256;10.386;2023-12-29T03:57:07;10.00;99.90
2625;DHT22;1322;53.256;10.386;2023-12-29T03:59:36;10.00;99.90
2625;DHT22;1322;53.256;10.386;2023-12-29T04:02:02;10.00;99.90
2625;DHT22;1322;53.256;10.386;2023-12-29T04:04:28;10.10;99.90
2625;DHT22;1322;53.256;10.386;2023-12-29T04:06:54;10.00;99.90
2625;DHT22;1322;53.256;10.386;2023-12-29T04:09:19;9.90;99.90
2625;DHT22;1322;53.256;10.386;2023-12-29T04:11:46;9.90;99.90
2625;DHT22;1322;53.256;10.386;2023-12-29T04:14:11;9.90;99.90
2625;DHT22;1322;53.256;10.386;2023-12-29T04:16:38;9.90;99.90
2625;DHT22;1322;53.256;10.386;2023-12-29T04:19:04;9.90;99.90
2625;DHT22;1322;53.256;10.386;2023-12-29T04:21:30;9.90;99.90
2625;DHT22;1322;53.256;10.386;2023-12-29T04:23:56;9.80;99.90
2625;DHT22;1322;53.256;10.386;2023-12-29T04:26:21;9.80;99.90
2625;DHT22;1322;53.256;10.386;2023-12-29T04:28:47;9.80;99.90
2625;DHT22;1322;53.256;10.386;2023-12-29T04:31:13;9.80;99.90
2625;DHT22;1322;53.256;10.386;2023-12-29T04:33:38;9.90;99.90
2625;DHT22;1322;53.256;10.386;2023-12-29T04:36:04;9.90;99.90
2625;DHT22;1322;53.256;10.386;2023-12-29T04:38:30;10.00;99.90
2625;DHT22;1322;53.256;10.386;2023-12-29T04:40:55;10.00;99.90
2625;DHT22;1322;53.256;10.386;2023-12-29T04:43:21;9.90;99.90
2625;DHT22;1322;53.256;10.386;2023-12-29T04:45:46;9.90;99.90
2625;DHT22;1322;53.256;10.386;2023-12-29T04:48:12;9.80;99.90
2625;DHT22;1322;53.256;10.386;2023-12-29T04:50:38;8.60;99.90
2625;DHT22;1322;53.256;10.386;2023-12-29T04:53:03;7.60;99.90
2625;DHT22;1322;53.256;10.386;2023-12-29T04:55:29;7.30;99.90
2625;DHT22;1322;53.256;10.386;2023-12-29T04:57:54;7.30;99.90
2625;DHT22;1322;53.256;10.386;2023-12-29T05:00:20;7.30;99.90
2625;DHT22;1322;53.256;10.386;2023-12-29T05:02:46;7.40;99.90
2625;DHT22;1322;53.256;10.386;2023-12-29T05:05:11;7.60;99.90
2625;DHT22;1322;53.256;10.386;2023-12-29T05:07:37;7.70;99.90
2625;DHT22;1322;53.256;10.386;2023-12-29T05:10:03;7.70;99.90
2625;DHT22;1322;53.256;10.386;2023-12-29T05:12:29;7.80;99.90
2625;DHT22;1322;53.256;10.386;2023-12-29T05:14:55;7.80;99.90
2625;DHT22;1322;53.256;10.386;2023-12-29T05:17:21;7.90;99.90
2625;DHT22;1322;53.256;10.386;2023-12-29T05:19:46;8.00;99.90
2625;DHT22;1322;53.256;10.386;2023-12-29T05:22:12;8.20;99.90
2625;DHT22;1322;53.256;10.386;2023-12-29T05:24:41;8.30;99.90
2625;DHT22;1322;53.256;10.386;2023-12-29T05:27:07;8.40;99.90
2625;DHT22;1322;53.256;10.386;2023-12-29T05:29:33;8.50;99.90
2625;DHT22;1322;53.256;10.386;2023-12-29T05:31:58;8.50;99.90
2625;DHT22;1322;53.256;10.386;2023-12-29T05:34:24;8.60;99.90
2625;DHT22;1322;53.256;10.386;2023-12-29T05:36:50;8.60;99.90
2625;DHT22;1322;53.256;10.386;2023-12-29T05:39:15;8.70;99.90
2625;DHT22;1322;53.256;10.386;2023-12-29T05:41:41;8.60;99.90
2625;DHT22;1322;53.256;10.386;2023-12-29T05:44:06;8.50;99.90
2625;DHT22;1322;53.256;10.386;2023-12-29T05:46:32;8.40;99.90
2625;DHT22;1322;53.256;10.386;2023-12-29T05:48:58;8.50;99.90
2625;DHT22;1322;53.256;10.386;2023-12-29T05:51:24;8.50;99.90
2625;DHT22;1322;53.256;10.386;2023-12-29T05:53:49;8.60;99.90
2625;DHT22;1322;53.256;10.386;2023-12-29T05:56:15;8.50;99.90
2625;DHT22;1322;53.256;10.386;2023-12-29T05:58:41;8.50;99.90
2625;DHT22;1322;53.256;10.386;2023-12-29T06:01:08;8.50;99.90
2625;DHT22;1322;53.256;10.386;2023-12-29T06:03:34;8.50;99.90
2625;DHT22;1322;53.256;10.386;2023-12-29T06:06:00;8.50;99.90
2625;DHT22;1322;53.256;10.386;2023-12-29T06:08:26;8.60;99.90
2625;DHT22;1322;53.256;10.386;2023-12-29T06:10:51;8.40;99.90
2625;DHT22;1322;53.256;10.386;2023-12-29T06:13:17;8.30;99.90
2625;DHT22;1322;53.256;10.386;2023-12-29T06:15:43;8.30;99.90
2625;DHT22;1322;53.256;10.386;2023-12-29T06:18:08;8.30;99.90
2625;DHT22;1322;53.256;10.386;2023-12-29T06:20:34;8.30;99.90
2625;DHT22;1322;53.256;10.386;2023-12-29T06:23:00;8.30;99.90
2625;DHT22;1322;53.256;10.386;2023-12-29T06:25:26;8.40;99.90
2625;DHT22;1322;53.256;10.386;2023-12-29T06:27:52;8.50;99.90
2625;DHT22;1322;53.256;10.386;2023-12-29T06:30:17;8.30;99.90
2625;DHT22;1322;53.256;10.386;2023-12-29T06:32:43;8.20;99.90
2625;DHT22;1322;53.256;10.386;2023-12-29T06:35:09;8.20;99.90
2625;DHT22;1322;53.256;10.386;2023-12-29T06:37:40;8.20;99.90
2625;DHT22;1322;53.256;10.386;2023-12-29T06:40:06;8.10;99.90
2625;DHT22;1322;53.256;10.386;2023-12-29T06:42:32;8.10;99.90
2625;DHT22;1322;53.256;10.386;2023-12-29T06:44:58;8.10;99.90
2625;DHT22;1322;53.256;10.386;2023-12-29T06:47:23;8.20;99.90
2625;DHT22;1322;53.256;10.386;2023-12-29T06:49:49;8.20;99.90
2625;DHT22;1322;53.256;10.386;2023-12-29T06:52:16;8.30;99.90
2625;DHT22;1322;53.256;10.386;2023-12-29T06:54:42;8.40;99.90
2625;DHT22;1322;53.256;10.386;2023-12-29T06:57:07;8.50;99.90
2625;DHT22;1322;53.256;10.386;2023-12-29T06:59:33;8.60;99.90
2625;DHT22;1322;53.256;10.386;2023-12-29T07:01:59;8.60;99.90
2625;DHT22;1322;53.256;10.386;2023-12-29T07:04:24;8.70;99.90
2625;DHT22;1322;53.256;10.386;2023-12-29T07:06:50;8.80;99.90
2625;DHT22;1322;53.256;10.386;2023-12-29T07:09:15;8.90;99.90
2625;DHT22;1322;53.256;10.386;2023-12-29T07:11:41;8.90;99.90
2625;DHT22;1322;53.256;10.386;2023-12-29T07:14:07;8.90;99.90
2625;DHT22;1322;53.256;10.386;2023-12-29T07:16:32;8.90;99.90
2625;DHT22;1322;53.256;10.386;2023-12-29T07:18:58;9.00;99.90
2625;DHT22;1322;53.256;10.386;2023-12-29T07:21:24;9.00;99.90
2625;DHT22;1322;53.256;10.386;2023-12-29T07:23:49;9.10;99.90
2625;DHT22;1322;53.256;10.386;2023-12-29T07:26:15;9.10;99.90
2625;DHT22;1322;53.256;10.386;2023-12-29T07:28:40;9.20;99.90
2625;DHT22;1322;53.256;10.386;2023-12-29T07:31:06;9.20;99.90
2625;DHT22;1322;53.256;10.386;2023-12-29T07:33:33;9.20;99.90
2625;DHT22;1322;53.256;10.386;2023-12-29T07:36:00;9.20;99.90
2625;DHT22;1322;53.256;10.386;2023-12-29T07:38:25;9.30;99.90
2625;DHT22;1322;53.256;10.386;2023-12-29T07:40:52;9.30;99.90
2625;DHT22;1322;53.256;10.386;2023-12-29T07:43:17;9.40;99.90
2625;DHT22;1322;53.256;10.386;2023-12-29T07:45:45;9.30;99.90
2625;DHT22;1322;53.256;10.386;2023-12-29T07:48:11;9.50;99.90
2625;DHT22;1322;53.256;10.386;2023-12-29T07:50:37;9.50;99.90
2625;DHT22;1322;53.256;10.386;2023-12-29T07:53:02;9.50;99.90
2625;DHT22;1322;53.256;10.386;2023-12-29T07:55:30;9.50;99.90
2625;DHT22;1322;53.256;10.386;2023-12-29T07:57:56;9.50;99.90
2625;DHT22;1322;53.256;10.386;2023-12-29T08:00:21;9.50;99.90
2625;DHT22;1322;53.256;10.386;2023-12-29T08:02:48;9.50;99.90
2625;DHT22;1322;53.256;10.386;2023-12-29T08:05:14;9.50;99.90
2625;DHT22;1322;53.256;10.386;2023-12-29T08:07:41;9.50;99.90
2625;DHT22;1322;53.256;10.386;2023-12-29T08:10:07;9.50;99.90
2625;DHT22;1322;53.256;10.386;2023-12-29T08:12:33;9.60;99.90
2625;DHT22;1322;53.256;10.386;2023-12-29T08:15:00;9.60;99.90
2625;DHT22;1322;53.256;10.386;2023-12-29T08:17:26;9.60;99.90
2625;DHT22;1322;53.256;10.386;2023-12-29T08:19:51;9.60;99.90
2625;DHT22;1322;53.256;10.386;2023-12-29T08:22:18;9.60;99.90
2625;DHT22;1322;53.256;10.386;2023-12-29T08:24:44;9.60;99.90
2625;DHT22;1322;53.256;10.386;2023-12-29T08:27:12;9.70;99.90
2625;DHT22;1322;53.256;10.386;2023-12-29T08:29:38;9.60;99.90
2625;DHT22;1322;53.256;10.386;2023-12-29T08:32:04;9.70;99.90
2625;DHT22;1322;53.256;10.386;2023-12-29T08:34:30;9.70;99.90
2625;DHT22;1322;53.256;10.386;2023-12-29T08:36:55;9.60;99.90
2625;DHT22;1322;53.256;10.386;2023-12-29T08:39:22;9.70;99.90
2625;DHT22;1322;53.256;10.386;2023-12-29T08:41:47;9.60;99.90
2625;DHT22;1322;53.256;10.386;2023-12-29T08:44:15;9.60;99.90
2625;DHT22;1322;53.256;10.386;2023-12-29T08:46:40;9.50;99.90
2625;DHT22;1322;53.256;10.386;2023-12-29T08:49:06;9.50;99.90
2625;DHT22;1322;53.256;10.386;2023-12-29T08:51:32;9.50;99.90
2625;DHT22;1322;53.256;10.386;2023-12-29T08:53:58;9.60;99.90
2625;DHT22;1322;53.256;10.386;2023-12-29T08:56:24;9.60;99.90
2625;DHT22;1322;53.256;10.386;2023-12-29T08:58:50;9.60;99.90
2625;DHT22;1322;53.256;10.386;2023-12-29T09:01:15;9.60;99.90
2625;DHT22;1322;53.256;10.386;2023-12-29T09:03:41;9.50;99.90
2625;DHT22;1322;53.256;10.386;2023-12-29T09:06:07;9.50;99.90
2625;DHT22;1322;53.256;10.386;2023-12-29T09:08:34;9.50;99.90
2625;DHT22;1322;53.256;10.386;2023-12-29T09:11:00;9.50;99.90
2625;DHT22;1322;53.256;10.386;2023-12-29T09:13:26;9.50;99.90
2625;DHT22;1322;53.256;10.386;2023-12-29T09:15:53;9.50;99.90
2625;DHT22;1322;53.256;10.386;2023-12-29T09:18:19;9.50;99.90
2625;DHT22;1322;53.256;10.386;2023-12-29T09:20:44;9.50;99.90
2625;DHT22;1322;53.256;10.386;2023-12-29T09:23:10;9.60;99.90
2625;DHT22;1322;53.256;10.386;2023-12-29T09:25:36;9.70;99.90
2625;DHT22;1322;53.256;10.386;2023-12-29T09:28:02;9.70;99.90
2625;DHT22;1322;53.256;10.386;2023-12-29T09:30:28;9.80;99.90
2625;DHT22;1322;53.256;10.386;2023-12-29T09:32:54;9.90;99.90
2625;DHT22;1322;53.256;10.386;2023-12-29T09:35:19;10.00;99.90
2625;DHT22;1322;53.256;10.386;2023-12-29T09:37:47;10.00;99.90
2625;DHT22;1322;53.256;10.386;2023-12-29T09:40:14;10.10;99.90
2625;DHT22;1322;53.256;10.386;2023-12-29T09:42:44;10.10;99.90
2625;DHT22;1322;53.256;10.386;2023-12-29T09:45:12;10.10;99.90
2625;DHT22;1322;53.256;10.386;2023-12-29T09:47:42;10.00;99.90
2625;DHT22;1322;53.256;10.386;2023-12-29T09:50:11;9.90;99.90
2625;DHT22;1322;53.256;10.386;2023-12-29T09:52:38;9.80;99.90
2625;DHT22;1322;53.256;10.386;2023-12-29T09:55:05;9.70;99.90
2625;DHT22;1322;53.256;10.386;2023-12-29T09:57:35;9.60;99.90
2625;DHT22;1322;53.256;10.386;2023-12-29T10:00:01;9.60;99.90
2625;DHT22;1322;53.256;10.386;2023-12-29T10:02:28;9.50;99.90
2625;DHT22;1322;53.256;10.386;2023-12-29T10:05:03;9.30;99.90
2625;DHT22;1322;53.256;10.386;2023-12-29T10:07:35;9.20;99.90
2625;DHT22;1322;53.256;10.386;2023-12-29T10:10:02;9.20;99.90
2625;DHT22;1322;53.256;10.386;2023-12-29T10:12:29;9.20;99.90
2625;DHT22;1322;53.256;10.386;2023-12-29T10:23:12;9.20;99.90
2625;DHT22;1322;53.256;10.386;2023-12-29T10:25:42;9.20;99.90
2625;DHT22;1322;53.256;10.386;2023-12-29T10:28:09;9.20;99.90
2625;DHT22;1322;53.256;10.386;2023-12-29T10:30:35;9.20;99.90
2625;DHT22;1322;53.256;10.386;2023-12-29T10:33:01;9.20;99.90
2625;DHT22;1322;53.256;10.386;2023-12-29T10:35:29;9.30;99.90
2625;DHT22;1322;53.256;10.386;2023-12-29T10:38:08;9.30;99.90
2625;DHT22;1322;53.256;10.386;2023-12-29T10:40:35;9.30;99.90
2625;DHT22;1322;53.256;10.386;2023-12-29T10:43:00;9.40;99.90
2625;DHT22;1322;53.256;10.386;2023-12-29T10:45:32;9.30;99.90
2625;DHT22;1322;53.256;10.386;2023-12-29T10:47:59;9.30;99.90
2625;DHT22;1322;53.256;10.386;2023-12-29T10:50:25;9.30;99.90
2625;DHT22;1322;53.256;10.386;2023-12-29T10:53:10;9.30;99.90
2625;DHT22;1322;53.256;10.386;2023-12-29T10:55:35;9.30;99.90
2625;DHT22;1322;53.256;10.386;2023-12-29T10:58:01;9.30;99.90
2625;DHT22;1322;53.256;10.386;2023-12-29T11:00:30;9.40;99.90
2625;DHT22;1322;53.256;10.386;2023-12-29T11:02:56;9.30;99.90
2625;DHT22;1322;53.256;10.386;2023-12-29T11:05:25;9.40;99.90
2625;DHT22;1322;53.256;10.386;2023-12-29T11:07:51;9.40;99.90
2625;DHT22;1322;53.256;10.386;2023-12-29T11:10:21;9.50;99.90
2625;DHT22;1322;53.256;10.386;2023-12-29T11:12:48;9.50;99.90
2625;DHT22;1322;53.256;10.386;2023-12-29T11:15:15;9.60;99.90
2625;DHT22;1322;53.256;10.386;2023-12-29T11:17:44;9.60;99.90
2625;DHT22;1322;53.256;10.386;2023-12-29T11:20:16;9.70;99.90
2625;DHT22;1322;53.256;10.386;2023-12-29T11:22:43;9.70;99.90
2625;DHT22;1322;53.256;10.386;2023-12-29T11:25:09;9.70;99.90
2625;DHT22;1322;53.256;10.386;2023-12-29T11:27:35;9.60;99.90
2625;DHT22;1322;53.256;10.386;2023-12-29T11:30:03;9.60;99.90
2625;DHT22;1322;53.256;10.386;2023-12-29T11:32:41;9.70;99.90
2625;DHT22;1322;53.256;10.386;2023-12-29T11:35:14;9.70;99.90
2625;DHT22;1322;53.256;10.386;2023-12-29T11:40:18;9.60;99.90
2625;DHT22;1322;53.256;10.386;2023-12-29T11:42:45;9.60;99.90
2625;DHT22;1322;53.256;10.386;2023-12-29T11:45:29;9.70;99.90
2625;DHT22;1322;53.256;10.386;2023-12-29T11:47:57;9.60;99.90
2625;DHT22;1322;53.256;10.386;2023-12-29T11:50:33;9.50;99.90
2625;DHT22;1322;53.256;10.386;2023-12-29T11:52:59;9.50;99.90
2625;DHT22;1322;53.256;10.386;2023-12-29T11:55:37;9.50;99.90
2625;DHT22;1322;53.256;10.386;2023-12-29T11:58:04;9.50;99.90
2625;DHT22;1322;53.256;10.386;2023-12-29T12:00:43;9.40;99.90
2625;DHT22;1322;53.256;10.386;2023-12-29T12:03:22;9.50;99.90
2625;DHT22;1322;53.256;10.386;2023-12-29T12:05:50;9.40;99.90
2625;DHT22;1322;53.256;10.386;2023-12-29T12:08:48;9.30;99.90
2625;DHT22;1322;53.256;10.386;2023-12-29T12:13:54;9.40;99.90
2625;DHT22;1322;53.256;10.386;2023-12-29T12:19:11;9.50;99.90
2625;DHT22;1322;53.256;10.386;2023-12-29T12:21:37;9.60;99.90
2625;DHT22;1322;53.256;10.386;2023-12-29T12:24:04;9.60;99.90
2625;DHT22;1322;53.256;10.386;2023-12-29T12:26:30;9.70;99.90
2625;DHT22;1322;53.256;10.386;2023-12-29T12:28:57;9.70;99.90
2625;DHT22;1322;53.256;10.386;2023-12-29T12:31:23;9.50;99.90
2625;DHT22;1322;53.256;10.386;2023-12-29T12:33:58;9.60;99.90
2625;DHT22;1322;53.256;10.386;2023-12-29T12:36:26;9.70;99.90
2625;DHT22;1322;53.256;10.386;2023-12-29T12:38:56;9.80;99.90
2625;DHT22;1322;53.256;10.386;2023-12-29T12:41:23;9.70;99.90
2625;DHT22;1322;53.256;10.386;2023-12-29T12:44:12;9.60;99.90
2625;DHT22;1322;53.256;10.386;2023-12-29T12:46:49;9.50;99.90
2625;DHT22;1322;53.256;10.386;2023-12-29T12:49:16;9.40;99.90
2625;DHT22;1322;53.256;10.386;2023-12-29T12:51:43;9.40;99.90
2625;DHT22;1322;53.256;10.386;2023-12-29T12:54:09;9.30;99.90
2625;DHT22;1322;53.256;10.386;2023-12-29T12:56:35;9.40;99.90
2625;DHT22;1322;53.256;10.386;2023-12-29T12:59:02;9.30;99.90
2625;DHT22;1322;53.256;10.386;2023-12-29T13:01:28;9.30;99.90
2625;DHT22;1322;53.256;10.386;2023-12-29T13:03:57;9.20;99.90
2625;DHT22;1322;53.256;10.386;2023-12-29T13:06:23;9.20;99.90
2625;DHT22;1322;53.256;10.386;2023-12-29T13:08:50;9.20;99.90
2625;DHT22;1322;53.256;10.386;2023-12-29T13:11:21;9.30;99.90
2625;DHT22;1322;53.256;10.386;2023-12-29T13:13:53;9.20;99.90
2625;DHT22;1322;53.256;10.386;2023-12-29T13:16:36;9.20;99.90
2625;DHT22;1322;53.256;10.386;2023-12-29T13:19:21;9.30;99.90
2625;DHT22;1322;53.256;10.386;2023-12-29T13:21:54;9.30;99.90
2625;DHT22;1322;53.256;10.386;2023-12-29T13:24:21;9.20;99.90
2625;DHT22;1322;53.256;10.386;2023-12-29T13:26:50;9.20;99.90
2625;DHT22;1322;53.256;10.386;2023-12-29T13:29:19;9.00;99.90
2625;DHT22;1322;53.256;10.386;2023-12-29T13:31:50;9.00;99.90
2625;DHT22;1322;53.256;10.386;2023-12-29T13:34:28;9.00;99.90
2625;DHT22;1322;53.256;10.386;2023-12-29T13:37:02;9.00;99.90
2625;DHT22;1322;53.256;10.386;2023-12-29T13:39:29;8.90;99.90
2625;DHT22;1322;53.256;10.386;2023-12-29T13:41:56;8.90;99.90
2625;DHT22;1322;53.256;10.386;2023-12-29T13:44:24;8.80;99.90
2625;DHT22;1322;53.256;10.386;2023-12-29T13:46:51;8.80;99.90
2625;DHT22;1322;53.256;10.386;2023-12-29T13:49:17;8.80;99.90
2625;DHT22;1322;53.256;10.386;2023-12-29T13:51:43;8.80;99.90
2625;DHT22;1322;53.256;10.386;2023-12-29T13:54:08;8.70;99.90
2625;DHT22;1322;53.256;10.386;2023-12-29T13:56:35;8.70;99.90
2625;DHT22;1322;53.256;10.386;2023-12-29T13:59:00;8.70;99.90
2625;DHT22;1322;53.256;10.386;2023-12-29T14:01:38;8.60;99.90
2625;DHT22;1322;53.256;10.386;2023-12-29T14:04:07;8.70;99.90
2625;DHT22;1322;53.256;10.386;2023-12-29T14:06:59;8.70;99.90
2625;DHT22;1322;53.256;10.386;2023-12-29T14:09:26;8.70;99.90
2625;DHT22;1322;53.256;10.386;2023-12-29T14:11:52;8.70;99.90
2625;DHT22;1322;53.256;10.386;2023-12-29T14:14:22;8.70;99.90
2625;DHT22;1322;53.256;10.386;2023-12-29T14:16:50;8.70;99.90
2625;DHT22;1322;53.256;10.386;2023-12-29T14:19:16;8.70;99.90
2625;DHT22;1322;53.256;10.386;2023-12-29T14:21:42;8.70;99.90
2625;DHT22;1322;53.256;10.386;2023-12-29T14:24:12;8.70;99.90
2625;DHT22;1322;53.256;10.386;2023-12-29T14:26:56;8.80;99.90
2625;DHT22;1322;53.256;10.386;2023-12-29T14:29:22;8.70;99.90
2625;DHT22;1322;53.256;10.386;2023-12-29T14:31:49;8.80;99.90
2625;DHT22;1322;53.256;10.386;2023-12-29T14:34:17;8.80;99.90
2625;DHT22;1322;53.256;10.386;2023-12-29T14:36:43;8.80;99.90
2625;DHT22;1322;53.256;10.386;2023-12-29T14:39:09;8.90;99.90
2625;DHT22;1322;53.256;10.386;2023-12-29T14:41:41;8.90;99.90
2625;DHT22;1322;53.256;10.386;2023-12-29T14:44:07;8.90;99.90
2625;DHT22;1322;53.256;10.386;2023-12-29T14:46:33;8.90;99.90
2625;DHT22;1322;53.256;10.386;2023-12-29T14:49:00;8.90;99.90
2625;DHT22;1322;53.256;10.386;2023-12-29T14:51:25;8.90;99.90
2625;DHT22;1322;53.256;10.386;2023-12-29T14:53:51;8.90;99.90
2625;DHT22;1322;53.256;10.386;2023-12-29T14:56:17;8.90;99.90
2625;DHT22;1322;53.256;10.386;2023-12-29T14:58:43;8.90;99.90
2625;DHT22;1322;53.256;10.386;2023-12-29T15:01:09;8.90;99.90
2625;DHT22;1322;53.256;10.386;2023-12-29T15:03:35;8.90;99.90
2625;DHT22;1322;53.256;10.386;2023-12-29T15:06:01;8.90;99.90
2625;DHT22;1322;53.256;10.386;2023-12-29T15:08:28;8.90;99.90
2625;DHT22;1322;53.256;10.386;2023-12-29T15:11:05;8.90;99.90
2625;DHT22;1322;53.256;10.386;2023-12-29T15:13:32;8.90;99.90
2625;DHT22;1322;53.256;10.386;2023-12-29T15:15:59;8.90;99.90
2625;DHT22;1322;53.256;10.386;2023-12-29T15:18:28;8.90;99.90
2625;DHT22;1322;53.256;10.386;2023-12-29T15:20:56;8.80;99.90
2625;DHT22;1322;53.256;10.386;2023-12-29T15:23:21;8.70;99.90
2625;DHT22;1322;53.256;10.386;2023-12-29T15:25:49;8.70;99.90
2625;DHT22;1322;53.256;10.386;2023-12-29T15:28:15;8.70;99.90
2625;DHT22;1322;53.256;10.386;2023-12-29T15:30:42;8.70;99.90
2625;DHT22;1322;53.256;10.386;2023-12-29T15:33:08;8.70;99.90
2625;DHT22;1322;53.256;10.386;2023-12-29T15:35:34;8.60;99.90
2625;DHT22;1322;53.256;10.386;2023-12-29T15:37:59;8.60;99.90
2625;DHT22;1322;53.256;10.386;2023-12-29T15:40:25;8.60;99.90
2625;DHT22;1322;53.256;10.386;2023-12-29T15:42:50;8.50;99.90
2625;DHT22;1322;53.256;10.386;2023-12-29T15:45:16;8.60;99.90
2625;DHT22;1322;53.256;10.386;2023-12-29T15:47:44;8.70;99.90
2625;DHT22;1322;53.256;10.386;2023-12-29T15:50:10;8.80;99.90
2625;DHT22;1322;53.256;10.386;2023-12-29T15:52:35;8.80;99.90
2625;DHT22;1322;53.256;10.386;2023-12-29T15:55:01;8.80;99.90
2625;DHT22;1322;53.256;10.386;2023-12-29T15:57:26;8.80;99.90
2625;DHT22;1322;53.256;10.386;2023-12-29T15:59:52;8.80;99.90
2625;DHT22;1322;53.256;10.386;2023-12-29T16:02:18;8.70;99.90
2625;DHT22;1322;53.256;10.386;2023-12-29T16:04:44;8.60;99.90
2625;DHT22;1322;53.256;10.386;2023-12-29T16:07:09;8.60;99.90
2625;DHT22;1322;53.256;10.386;2023-12-29T16:09:35;8.60;99.90
2625;DHT22;1322;53.256;10.386;2023-12-29T16:12:01;8.70;99.90
2625;DHT22;1322;53.256;10.386;2023-12-29T16:14:27;8.70;99.90
2625;DHT22;1322;53.256;10.386;2023-12-29T16:16:53;8.80;99.90
2625;DHT22;1322;53.256;10.386;2023-12-29T16:19:19;8.80;99.90